Time;durP1;ratioP1;P1;durP2;ratioP2;P2;SDS_P1;SDS_P2;PMS_P1;PMS_P2;Temp;Humidity;BMP_temperature;BMP_pressure;BME280_temperature;BME280_humidity;BME280_pressure;Samples;Min_cycle;Max_cycle;Signal;HPM_P1;HPM_P2
2022/07/22 00:00:09;;;;;;;;;;;;;;;25.11;48.61;101985.06;7281228;19;152124;-61
2022/07/22 00:02:36;;;;;;;;;;;;;;;25.09;48.65;101988.19;7284827;19;153495;-61
2022/07/22 00:05:03;;;;;;;;;;;;;;;25.08;48.77;101978.00;7279078;19;153811;-61
2022/07/22 00:07:30;;;;;;;;;;;;;;;25.11;48.32;101968.09;7284074;19;152253;-61
2022/07/22 00:09:57;;;;;;;;;;;;;;;25.15;48.25;101972.78;7289210;19;153065;-61
2022/07/22 00:12:24;;;;;;;;;;;;;;;25.09;48.46;101979.69;7285744;19;152890;-61
2022/07/22 00:14:51;;;;;;;;;;;;;;;25.10;49.23;101974.88;7285550;19;153587;-61
2022/07/22 00:17:18;;;;;;;;;;;;;;;25.15;49.07;101969.97;7284658;19;153486;-61
2022/07/22 00:19:45;;;;;;;;;;;;;;;25.16;48.83;101971.66;7283409;19;152821;-61
2022/07/22 00:22:12;;;;;;;;;;;;;;;25.13;49.12;101954.44;7284595;19;153394;-61
2022/07/22 00:24:39;;;;;;;;;;;;;;;25.14;48.23;101959.78;7282555;19;154427;-61
2022/07/22 00:27:06;;;;;;;;;;;;;;;25.13;48.64;101954.44;7284990;19;151759;-61
2022/07/22 00:29:33;;;;;;;;;;;;;;;25.06;48.33;101954.03;7282056;19;152725;-61
2022/07/22 00:32:01;;;;;;;;;;;;;;;25.10;48.92;101953.09;7292055;19;153858;-61
2022/07/22 00:34:28;;;;;;;;;;;;;;;25.08;48.67;101935.59;7280760;19;154764;-61
2022/07/22 00:36:54;;;;;;;;;;;;;;;25.08;49.02;101938.44;7282330;19;154185;-61
2022/07/22 00:39:22;;;;;;;;;;;;;;;25.12;48.64;101936.63;7282928;19;152907;-61
2022/07/22 00:41:49;;;;;;;;;;;;;;;25.16;48.69;101931.22;7283284;19;152019;-61
2022/07/22 00:44:17;;;;;;;;;;;;;;;25.19;48.37;101937.06;7282013;19;154669;-61
2022/07/22 00:46:43;;;;;;;;;;;;;;;25.15;48.62;101941.69;7286472;19;152619;-61
2022/07/22 00:49:10;;;;;;;;;;;;;;;25.17;48.66;101936.53;7279332;19;153687;-61
2022/07/22 00:51:39;;;;;;;;;;;;;;;25.19;49.06;101941.88;7282216;19;152619;-61
2022/07/22 00:54:06;;;;;;;;;;;;;;;25.14;48.68;101942.81;7290671;19;153387;-61
2022/07/22 00:56:33;;;;;;;;;;;;;;;25.08;49.06;101946.91;7281571;19;152915;-61
2022/07/22 00:59:02;;;;;;;;;;;;;;;25.15;49.15;101943.66;7283252;19;152452;-61
2022/07/22 01:01:29;;;;;;;;;;;;;;;25.12;49.16;101939.47;7283898;19;154141;-61
2022/07/22 01:03:55;;;;;;;;;;;;;;;25.15;49.08;101938.84;7277201;19;154249;-60
2022/07/22 01:06:27;;;;;;;;;;;;;;;25.19;49.27;101941.88;7284593;19;151938;-60
2022/07/22 01:08:54;;;;;;;;;;;;;;;25.13;48.98;101927.00;7282641;19;152599;-60
2022/07/22 01:11:22;;;;;;;;;;;;;;;25.08;49.01;101932.78;7282843;19;153394;-60
2022/07/22 01:13:49;;;;;;;;;;;;;;;25.07;49.68;101933.94;7281956;19;153763;-61
2022/07/22 01:16:16;;;;;;;;;;;;;;;25.07;49.63;101936.78;7290885;19;152952;-60
2022/07/22 01:18:44;;;;;;;;;;;;;;;25.08;49.05;101932.78;7280852;19;152937;-61
2022/07/22 01:21:12;;;;;;;;;;;;;;;25.06;49.40;101932.25;7281185;19;153238;-60
2022/07/22 01:23:39;;;;;;;;;;;;;;;25.10;49.35;101938.97;7283383;19;153400;-60
2022/07/22 01:26:05;;;;;;;;;;;;;;;25.11;49.92;101928.47;7285560;19;152651;-60
2022/07/22 01:28:32;;;;;;;;;;;;;;;25.11;49.74;101923.66;7282541;19;152554;-60
2022/07/22 01:30:59;;;;;;;;;;;;;;;25.15;49.41;101923.88;7281434;19;152771;-60
2022/07/22 01:33:26;;;;;;;;;;;;;;;25.16;49.51;101928.38;7283754;19;152686;-60
2022/07/22 01:35:53;;;;;;;;;;;;;;;25.16;49.29;101925.56;7282856;19;152934;-61
2022/07/22 01:38:20;;;;;;;;;;;;;;;25.13;49.33;101924.19;7290157;19;152162;-61
2022/07/22 01:40:47;;;;;;;;;;;;;;;25.12;49.64;101922.50;7282520;19;153897;-61
2022/07/22 01:43:17;;;;;;;;;;;;;;;25.08;49.72;101923.44;7281790;19;154156;-61
2022/07/22 01:45:45;;;;;;;;;;;;;;;25.15;49.50;101926.69;7281103;19;152603;-61
2022/07/22 01:48:12;;;;;;;;;;;;;;;25.09;48.98;101931.63;7280737;19;153814;-61
2022/07/22 01:50:40;;;;;;;;;;;;;;;25.10;49.63;101919.16;7276387;19;153534;-61
2022/07/22 01:53:07;;;;;;;;;;;;;;;25.06;49.56;101920.09;7284072;19;151638;-62
2022/07/22 01:55:34;;;;;;;;;;;;;;;25.04;50.23;101922.41;7282892;19;152083;-62
2022/07/22 01:58:01;;;;;;;;;;;;;;;25.06;49.81;101917.28;7290164;19;154000;-61
2022/07/22 02:00:28;;;;;;;;;;;;;;;25.04;49.87;101923.25;7283781;19;153540;-61
2022/07/22 02:02:54;;;;;;;;;;;;;;;25.06;50.33;101906.81;7280473;19;153988;-61
2022/07/22 02:05:21;;;;;;;;;;;;;;;25.11;49.78;101912.34;7278566;19;152144;-62
2022/07/22 02:07:48;;;;;;;;;;;;;;;25.07;50.13;101911.31;7279838;19;153632;-60
2022/07/22 02:10:19;;;;;;;;;;;;;;;25.12;50.27;101918.84;7276690;19;153282;-60
2022/07/22 02:12:46;;;;;;;;;;;;;;;25.08;50.22;101912.13;7281804;19;151910;-60
2022/07/22 02:15:12;;;;;;;;;;;;;;;25.11;50.24;101912.34;7282508;19;152656;-62
2022/07/22 02:17:39;;;;;;;;;;;;;;;25.11;50.45;101906.69;7280225;19;152794;-62
2022/07/22 02:20:06;;;;;;;;;;;;;;;25.09;50.04;101914.66;7285764;19;152667;-62
2022/07/22 02:22:33;;;;;;;;;;;;;;;25.09;50.33;101911.81;7283305;19;153564;-62
2022/07/22 02:25:00;;;;;;;;;;;;;;;25.11;50.66;101918.00;7295796;19;152353;-61
2022/07/22 02:27:26;;;;;;;;;;;;;;;25.12;50.02;101911.19;7296116;19;153474;-61
2022/07/22 02:29:53;;;;;;;;;;;;;;;25.12;50.18;101930.16;7291069;19;152638;-61
2022/07/22 02:32:20;;;;;;;;;;;;;;;25.10;49.96;101910.69;7295137;19;152297;-61
2022/07/22 02:34:48;;;;;;;;;;;;;;;25.12;49.78;101921.69;7293278;19;153435;-61
2022/07/22 02:37:15;;;;;;;;;;;;;;;25.13;49.70;101910.03;7293937;19;153444;-61
2022/07/22 02:39:42;;;;;;;;;;;;;;;25.10;50.00;101910.69;7296238;19;153080;-61
2022/07/22 02:42:10;;;;;;;;;;;;;;;25.09;50.03;101914.66;7301343;19;156202;-62
2022/07/22 02:44:36;;;;;;;;;;;;;;;25.13;49.97;101921.34;7294946;19;152486;-61
2022/07/22 02:47:03;;;;;;;;;;;;;;;25.11;50.24;101931.31;7295341;19;154089;-61
2022/07/22 02:49:30;;;;;;;;;;;;;;;25.05;49.55;101930.59;7290700;19;152499;-61
2022/07/22 02:51:56;;;;;;;;;;;;;;;25.11;49.99;101934.13;7296011;19;153206;-62
2022/07/22 02:54:23;;;;;;;;;;;;;;;25.11;50.04;101928.47;7296121;19;152582;-61
2022/07/22 02:56:50;;;;;;;;;;;;;;;25.08;49.32;101926.28;7291996;19;153694;-61
2022/07/22 02:59:16;;;;;;;;;;;;;;;25.07;49.84;101928.28;7294037;19;154240;-61
2022/07/22 03:01:43;;;;;;;;;;;;;;;25.09;49.88;101927.94;7293621;19;152200;-61
2022/07/22 03:04:10;;;;;;;;;;;;;;;25.07;49.59;101921.78;7297504;19;153412;-61
2022/07/22 03:06:37;;;;;;;;;;;;;;;25.05;50.15;101918.44;7295011;19;152826;-62
2022/07/22 03:09:04;;;;;;;;;;;;;;;25.05;49.81;101919.28;7289701;19;153707;-61
2022/07/22 03:11:31;;;;;;;;;;;;;;;25.06;49.73;101915.28;7295392;19;151888;-61
2022/07/22 03:14:01;;;;;;;;;;;;;;;25.10;50.03;101915.50;7293773;19;153604;-61
2022/07/22 03:16:27;;;;;;;;;;;;;;;25.11;49.21;101918.00;7293090;19;153834;-61
2022/07/22 03:18:54;;;;;;;;;;;;;;;25.12;49.85;101916.03;7289717;19;152856;-61
2022/07/22 03:21:21;;;;;;;;;;;;;;;25.17;49.60;101911.06;7294323;19;152794;-61
2022/07/22 03:23:53;;;;;;;;;;;;;;;25.09;49.55;101910.97;7293233;19;154248;-61
2022/07/22 03:26:23;;;;;;;;;;;;;;;25.09;49.41;101899.66;7301710;19;152218;-61
2022/07/22 03:28:50;;;;;;;;;;;;;;;25.11;49.88;101908.69;7291301;19;153514;-61
2022/07/22 03:31:17;;;;;;;;;;;;;;;25.18;49.52;101906.25;7293951;19;151939;-61
2022/07/22 03:33:43;;;;;;;;;;;;;;;25.07;50.03;101911.31;7291296;19;152882;-61
2022/07/22 03:36:10;;;;;;;;;;;;;;;25.03;50.00;101906.63;7281180;19;153837;-61
2022/07/22 03:38:37;;;;;;;;;;;;;;;25.04;49.85;101902.59;7287643;19;151821;-60
2022/07/22 03:41:04;;;;;;;;;;;;;;;25.03;49.28;101904.59;7286596;19;153066;-61
2022/07/22 03:43:31;;;;;;;;;;;;;;;25.03;49.20;101907.41;7285035;19;153263;-61
2022/07/22 03:45:58;;;;;;;;;;;;;;;25.07;49.66;101902.84;7293948;19;153665;-61
2022/07/22 03:48:24;;;;;;;;;;;;;;;25.01;49.70;101903.25;7282314;19;154614;-61
2022/07/22 03:50:51;;;;;;;;;;;;;;;25.01;49.54;101895.59;7281684;19;153244;-61
2022/07/22 03:53:18;;;;;;;;;;;;;;;24.99;49.73;101894.22;7285314;19;152843;-61
2022/07/22 03:55:44;;;;;;;;;;;;;;;25.01;49.92;101889.09;7283762;19;154520;-61
2022/07/22 03:58:11;;;;;;;;;;;;;;;25.05;49.72;101887.31;7286302;19;152066;-60
2022/07/22 04:00:38;;;;;;;;;;;;;;;25.04;49.82;101886.47;7285895;19;153542;-61
2022/07/22 04:03:05;;;;;;;;;;;;;;;25.05;49.76;101884.50;7283827;19;153995;-61
2022/07/22 04:05:31;;;;;;;;;;;;;;;25.06;49.40;101881.34;7282260;19;152329;-61
2022/07/22 04:07:58;;;;;;;;;;;;;;;24.95;50.21;101881.88;7291899;19;154066;-61
2022/07/22 04:10:25;;;;;;;;;;;;;;;25.03;49.48;101881.97;7283148;19;154164;-61
2022/07/22 04:12:51;;;;;;;;;;;;;;;25.02;49.41;101874.66;7285250;19;152864;-61
2022/07/22 04:15:18;;;;;;;;;;;;;;;24.96;49.56;101873.09;7284648;19;152803;-61
2022/07/22 04:17:45;;;;;;;;;;;;;;;25.05;49.17;101881.66;7285640;19;151745;-61
2022/07/22 04:20:12;;;;;;;;;;;;;;;24.98;49.60;101873.63;7281599;19;151995;-62
2022/07/22 04:22:39;;;;;;;;;;;;;;;25.08;49.61;101867.72;7283760;19;154649;-61
2022/07/22 04:25:06;;;;;;;;;;;;;;;25.00;49.74;101870.47;7285032;19;154638;-61
2022/07/22 04:27:36;;;;;;;;;;;;;;;24.96;49.56;101870.25;7286085;19;152965;-61
2022/07/22 04:30:13;;;;;;;;;;;;;;;24.93;49.88;101859.59;7289756;19;154164;-61
2022/07/22 04:32:40;;;;;;;;;;;;;;;24.94;49.83;101861.25;7286322;19;151989;-61
2022/07/22 04:35:07;;;;;;;;;;;;;;;24.92;49.79;101852.25;7282442;19;154058;-61
2022/07/22 04:37:41;;;;;;;;;;;;;;;24.87;49.72;101849.53;7286407;19;153787;-60
2022/07/22 04:40:08;;;;;;;;;;;;;;;24.89;49.50;101852.91;7284871;19;152613;-60
2022/07/22 04:42:37;;;;;;;;;;;;;;;24.84;50.55;101852.97;7284024;19;154013;-61
2022/07/22 04:45:06;;;;;;;;;;;;;;;24.93;49.50;101847.44;7281787;19;152895;-61
2022/07/22 04:47:44;;;;;;;;;;;;;;;24.89;49.91;101840.75;7284205;19;154024;-61
2022/07/22 04:50:11;;;;;;;;;;;;;;;24.92;49.44;101857.06;7276298;19;154095;-60
2022/07/22 04:52:38;;;;;;;;;;;;;;;25.01;49.25;101838.22;7291531;19;153873;-61
2022/07/22 04:55:14;;;;;;;;;;;;;;;24.94;49.21;101841.44;7280705;19;154570;-60
2022/07/22 04:57:57;;;;;;;;;;;;;;;25.01;49.37;101836.22;7285815;19;152402;-60
2022/07/22 05:00:24;;;;;;;;;;;;;;;24.89;49.50;101835.94;7284051;19;153741;-61
2022/07/22 05:02:51;;;;;;;;;;;;;;;24.95;49.35;101830.97;7282937;19;154437;-61
2022/07/22 05:05:18;;;;;;;;;;;;;;;25.00;49.42;101826.06;7281096;19;152392;-61
2022/07/22 05:07:45;;;;;;;;;;;;;;;25.00;49.03;101831.72;7285596;19;153452;-62
2022/07/22 05:10:12;;;;;;;;;;;;;;;24.93;49.68;101834.16;7282286;19;154551;-61
2022/07/22 05:12:46;;;;;;;;;;;;;;;24.88;49.26;101828.59;7284503;19;152424;-59
2022/07/22 05:15:16;;;;;;;;;;;;;;;24.83;49.61;101827.84;7288348;19;154027;-61
2022/07/22 05:17:47;;;;;;;;;;;;;;;24.92;49.33;101829.63;7284175;19;153789;-60
2022/07/22 05:20:16;;;;;;;;;;;;;;;24.88;49.17;101834.25;7279720;19;152726;-61
2022/07/22 05:22:43;;;;;;;;;;;;;;;24.89;49.42;101840.75;7283601;19;153337;-61
2022/07/22 05:25:10;;;;;;;;;;;;;;;24.85;49.19;101829.19;7284669;19;152665;-61
2022/07/22 05:27:49;;;;;;;;;;;;;;;24.88;49.34;101837.09;7282212;19;152109;-61
2022/07/22 05:30:16;;;;;;;;;;;;;;;24.85;48.95;101840.50;7282486;19;154921;-61
2022/07/22 05:32:49;;;;;;;;;;;;;;;24.87;49.15;101837.41;7282508;19;152155;-60
2022/07/22 05:35:16;;;;;;;;;;;;;;;24.78;48.84;101842.94;7280205;19;152994;-61
2022/07/22 05:37:44;;;;;;;;;;;;;;;24.83;48.93;101847.63;7291646;19;154261;-61
2022/07/22 05:40:20;;;;;;;;;;;;;;;24.82;49.37;101852.44;7283956;19;152998;-62
2022/07/22 05:42:47;;;;;;;;;;;;;;;24.83;49.06;101851.31;7280373;19;153896;-62
2022/07/22 05:45:17;;;;;;;;;;;;;;;24.83;49.09;101858.94;7281745;19;152861;-61
2022/07/22 05:47:48;;;;;;;;;;;;;;;24.86;48.74;101861.13;7281726;19;152727;-62
2022/07/22 05:50:22;;;;;;;;;;;;;;;24.84;49.05;101854.97;7276438;19;153601;-62
2022/07/22 05:52:50;;;;;;;;;;;;;;;24.83;49.30;101861.75;7283200;19;152961;-62
2022/07/22 05:55:17;;;;;;;;;;;;;;;24.81;49.13;101862.91;7281781;19;154585;-62
2022/07/22 05:57:44;;;;;;;;;;;;;;;24.78;48.91;101859.88;7286002;19;153520;-61
2022/07/22 06:00:11;;;;;;;;;;;;;;;24.77;49.46;101863.84;7281216;19;152481;-61
2022/07/22 06:02:37;;;;;;;;;;;;;;;24.77;49.51;101866.69;7279937;19;154283;-61
2022/07/22 06:05:04;;;;;;;;;;;;;;;24.72;49.09;101864.81;7278831;19;152365;-61
2022/07/22 06:07:31;;;;;;;;;;;;;;;24.71;49.32;101857.47;7283628;19;153623;-61
2022/07/22 06:09:58;;;;;;;;;;;;;;;24.72;49.16;101859.16;7281161;19;154088;-61
2022/07/22 06:12:24;;;;;;;;;;;;;;;24.71;49.27;101863.13;7283222;19;153094;-61
2022/07/22 06:14:51;;;;;;;;;;;;;;;24.85;49.05;101865.13;7281830;19;153344;-61
2022/07/22 06:17:18;;;;;;;;;;;;;;;24.75;49.19;101864.19;7282261;19;154392;-61
2022/07/22 06:19:44;;;;;;;;;;;;;;;24.78;49.74;101859.88;7286887;19;152818;-61
2022/07/22 06:22:11;;;;;;;;;;;;;;;24.75;49.86;101866.19;7279888;19;153822;-60
2022/07/22 06:24:38;;;;;;;;;;;;;;;24.64;49.55;101857.06;7281409;19;152890;-60
2022/07/22 06:27:05;;;;;;;;;;;;;;;24.60;48.88;101861.69;7281612;19;153713;-60
2022/07/22 06:29:31;;;;;;;;;;;;;;;24.61;49.05;101857.72;7279563;19;153938;-60
2022/07/22 06:31:58;;;;;;;;;;;;;;;24.66;48.82;101851.09;7278711;19;153286;-60
2022/07/22 06:34:25;;;;;;;;;;;;;;;24.66;49.36;101854.78;7279963;19;153550;-61
2022/07/22 06:36:51;;;;;;;;;;;;;;;24.63;49.56;101846.91;7281530;19;153836;-60
2022/07/22 06:39:18;;;;;;;;;;;;;;;24.65;49.38;101852.25;7282580;19;152006;-59
2022/07/22 06:41:45;;;;;;;;;;;;;;;24.62;49.18;101842.41;7289169;19;152989;-59
2022/07/22 06:44:12;;;;;;;;;;;;;;;24.62;49.21;101850.88;7283910;19;152094;-60
2022/07/22 06:46:39;;;;;;;;;;;;;;;24.64;49.04;101839.28;7283243;19;152851;-60
2022/07/22 06:49:07;;;;;;;;;;;;;;;24.67;48.97;101832.97;7279371;19;153920;-58
2022/07/22 06:51:38;;;;;;;;;;;;;;;24.64;49.24;101834.47;7278608;19;152666;-63
2022/07/22 06:54:05;;;;;;;;;;;;;;;24.64;49.12;101840.13;7281268;19;153362;-60
2022/07/22 06:56:31;;;;;;;;;;;;;;;24.68;48.54;101837.47;7281225;19;153242;-60
2022/07/22 06:58:58;;;;;;;;;;;;;;;24.64;48.90;101833.63;7279662;19;153092;-60
2022/07/22 07:01:25;;;;;;;;;;;;;;;24.63;48.72;101841.25;7281452;19;153723;-60
2022/07/22 07:03:55;;;;;;;;;;;;;;;24.62;48.85;101835.94;7283532;19;153613;-60
2022/07/22 07:06:22;;;;;;;;;;;;;;;24.63;48.41;101832.78;7280791;19;153264;-60
2022/07/22 07:08:49;;;;;;;;;;;;;;;24.63;48.61;101829.94;7281428;19;152587;-60
2022/07/22 07:11:16;;;;;;;;;;;;;;;24.63;48.50;101831.94;7287261;19;152178;-60
2022/07/22 07:13:43;;;;;;;;;;;;;;;24.61;48.49;101832.28;7287407;19;153508;-60
2022/07/22 07:16:10;;;;;;;;;;;;;;;24.60;48.45;101824.94;7287200;19;153520;-60
2022/07/22 07:18:37;;;;;;;;;;;;;;;24.64;48.45;101827.97;7287523;19;152985;-59
2022/07/22 07:21:04;;;;;;;;;;;;;;;24.54;47.99;101829.00;7285322;19;153862;-60
2022/07/22 07:23:34;;;;;;;;;;;;;;;24.48;47.77;101821.81;7285789;19;153719;-60
2022/07/22 07:26:00;;;;;;;;;;;;;;;24.48;47.72;101833.13;7297049;19;152279;-59
2022/07/22 07:28:27;;;;;;;;;;;;;;;24.53;47.98;101835.00;7287455;19;153968;-58
2022/07/22 07:30:55;;;;;;;;;;;;;;;24.55;48.31;101836.34;7285609;19;153052;-58
2022/07/22 07:33:22;;;;;;;;;;;;;;;24.59;48.00;101834.56;7287983;19;152781;-60
2022/07/22 07:35:49;;;;;;;;;;;;;;;24.59;48.31;101836.53;7250778;19;155572;-60
2022/07/22 07:38:15;;;;;;;;;;;;;;;24.56;47.95;101832.38;7283362;19;152422;-60
2022/07/22 07:40:42;;;;;;;;;;;;;;;24.59;47.98;101836.53;7286243;19;152618;-60
2022/07/22 07:43:09;;;;;;;;;;;;;;;24.58;47.70;101832.88;7286445;19;154309;-60
2022/07/22 07:45:36;;;;;;;;;;;;;;;24.53;48.00;101838.63;7287945;19;152144;-60
2022/07/22 07:48:03;;;;;;;;;;;;;;;24.59;47.96;101826.09;7294389;19;152143;-60
2022/07/22 07:50:30;;;;;;;;;;;;;;;24.57;47.66;101819.09;7284640;19;152760;-60
2022/07/22 07:52:57;;;;;;;;;;;;;;;24.57;47.64;101831.22;7287401;19;153040;-60
2022/07/22 07:55:24;;;;;;;;;;;;;;;24.58;47.24;101829.22;7286593;19;153353;-60
2022/07/22 07:57:52;;;;;;;;;;;;;;;24.58;47.66;101829.22;7287629;19;152023;-60
2022/07/22 08:00:20;;;;;;;;;;;;;;;24.58;47.39;101837.69;7286581;19;153208;-60
2022/07/22 08:02:47;;;;;;;;;;;;;;;24.56;47.59;101825.88;7285046;19;154277;-60
2022/07/22 08:05:15;;;;;;;;;;;;;;;24.56;47.52;101831.53;7283753;19;151959;-60
2022/07/22 08:07:55;;;;;;;;;;;;;;;24.59;47.29;101837.38;7294557;19;153213;-60
2022/07/22 08:10:23;;;;;;;;;;;;;;;24.56;46.89;101835.19;7287503;19;152301;-60
2022/07/22 08:13:10;;;;;;;;;;;;;;;24.56;47.29;101832.38;7286908;19;152848;-60
2022/07/22 08:15:37;;;;;;;;;;;;;;;24.54;47.40;101823.34;7286014;19;153819;-60
2022/07/22 08:18:04;;;;;;;;;;;;;;;24.54;47.01;101829.00;7286764;19;151901;-60
2022/07/22 08:20:31;;;;;;;;;;;;;;;24.54;46.87;101819.69;7281637;19;152654;-60
2022/07/22 08:22:58;;;;;;;;;;;;;;;24.57;47.01;101819.94;7284172;19;154980;-60
2022/07/22 08:25:26;;;;;;;;;;;;;;;24.56;46.90;101821.06;7287650;19;152332;-60
2022/07/22 08:27:56;;;;;;;;;;;;;;;24.61;46.36;101817.31;7288286;19;152685;-60
2022/07/22 08:30:26;;;;;;;;;;;;;;;24.57;46.81;101808.63;7292837;19;153347;-60
2022/07/22 08:32:53;;;;;;;;;;;;;;;24.57;46.71;101805.81;7287426;19;153214;-60
2022/07/22 08:35:20;;;;;;;;;;;;;;;24.61;46.66;101806.00;7281914;19;153938;-60
2022/07/22 08:37:50;;;;;;;;;;;;;;;24.58;46.63;101810.28;7288027;19;152211;-60
2022/07/22 08:40:17;;;;;;;;;;;;;;;24.57;46.94;101800.16;7286333;19;153685;-60
2022/07/22 08:42:45;;;;;;;;;;;;;;;24.61;46.55;101806.00;7286883;19;153516;-60
2022/07/22 08:45:12;;;;;;;;;;;;;;;24.61;46.62;101814.47;7286183;19;152325;-60
2022/07/22 08:47:54;;;;;;;;;;;;;;;24.62;46.43;101818.97;7287045;19;153490;-60
2022/07/22 08:50:21;;;;;;;;;;;;;;;24.60;46.69;101807.97;7279346;19;154255;-60
2022/07/22 08:52:48;;;;;;;;;;;;;;;24.61;46.29;101823.78;7291781;19;152338;-60
2022/07/22 08:55:15;;;;;;;;;;;;;;;24.58;46.22;101815.94;7282709;19;154499;-60
2022/07/22 08:57:50;;;;;;;;;;;;;;;24.59;46.50;101819.59;7285075;19;151770;-60
2022/07/22 09:00:19;;;;;;;;;;;;;;;24.60;46.38;101815.63;7259741;19;153526;-60
2022/07/22 09:02:46;;;;;;;;;;;;;;;24.63;46.22;101823.47;7276332;19;156498;-60
2022/07/22 09:05:14;;;;;;;;;;;;;;;24.63;46.54;101814.97;7280784;19;152751;-60
2022/07/22 09:08:00;;;;;;;;;;;;;;;24.62;46.14;101816.16;7284470;19;156547;-60
2022/07/22 09:10:31;;;;;;;;;;;;;;;24.62;46.28;101808.50;7283622;19;153816;-60
2022/07/22 09:13:00;;;;;;;;;;;;;;;24.63;46.32;101815.81;7281699;19;151752;-60
2022/07/22 09:15:35;;;;;;;;;;;;;;;24.63;46.20;101809.31;7290486;19;153979;-60
2022/07/22 09:18:03;;;;;;;;;;;;;;;24.66;46.18;101805.88;7285400;19;151972;-60
2022/07/22 09:20:32;;;;;;;;;;;;;;;24.69;46.08;101799.59;7281497;19;152904;-60
2022/07/22 09:22:59;;;;;;;;;;;;;;;24.72;45.93;101796.97;7280619;19;153171;-60
2022/07/22 09:25:26;;;;;;;;;;;;;;;24.71;46.08;101786.00;7284109;19;152670;-60
2022/07/22 09:28:08;;;;;;;;;;;;;;;24.69;46.11;101780.66;7283652;19;153235;-60
2022/07/22 09:30:41;;;;;;;;;;;;;;;24.70;45.91;101781.50;7283412;19;153477;-60
2022/07/22 09:33:09;;;;;;;;;;;;;;;24.71;46.13;101783.97;7278240;19;152890;-60
2022/07/22 09:35:37;;;;;;;;;;;;;;;24.75;45.96;101779.41;7280705;19;153631;-60
2022/07/22 09:38:05;;;;;;;;;;;;;;;24.74;45.70;101780.53;7290715;19;153647;-60
2022/07/22 09:40:35;;;;;;;;;;;;;;;24.78;45.87;101780.75;7283573;19;153778;-60
2022/07/22 09:43:06;;;;;;;;;;;;;;;24.75;45.88;101785.06;7279984;19;153491;-60
2022/07/22 09:45:34;;;;;;;;;;;;;;;24.76;46.20;101774.56;7275739;19;153844;-60
2022/07/22 09:48:01;;;;;;;;;;;;;;;24.79;45.74;101774.78;7284752;19;152871;-60
2022/07/22 09:50:32;;;;;;;;;;;;;;;24.77;45.69;101779.91;7277925;19;153111;-60
2022/07/22 09:53:00;;;;;;;;;;;;;;;24.78;46.16;101775.94;7281622;19;152625;-60
2022/07/22 09:55:29;;;;;;;;;;;;;;;24.78;45.58;101767.44;7283388;19;153759;-60
2022/07/22 09:58:05;;;;;;;;;;;;;;;24.77;45.33;101774.25;7282718;19;153501;-60
2022/07/22 10:00:32;;;;;;;;;;;;;;;24.78;45.55;101778.75;7287549;19;152517;-60
2022/07/22 10:02:59;;;;;;;;;;;;;;;24.80;45.67;101770.78;7277740;19;155032;-60
2022/07/22 10:05:31;;;;;;;;;;;;;;;24.80;45.49;101773.59;7278483;19;153008;-60
2022/07/22 10:07:59;;;;;;;;;;;;;;;24.84;45.75;101768.16;7278812;19;152569;-60
2022/07/22 10:10:27;;;;;;;;;;;;;;;24.81;45.75;101765.97;7268547;19;154546;-60
2022/07/22 10:12:55;;;;;;;;;;;;;;;24.84;45.22;101775.81;7279754;19;151967;-60
2022/07/22 10:15:23;;;;;;;;;;;;;;;24.88;45.73;101774.06;7282090;19;153709;-60
2022/07/22 10:18:08;;;;;;;;;;;;;;;24.90;45.72;101764.09;7280502;19;156385;-60
2022/07/22 10:20:35;;;;;;;;;;;;;;;24.93;45.60;101757.81;7286674;19;152268;-60
2022/07/22 10:23:04;;;;;;;;;;;;;;;24.95;45.72;101782.91;7281744;19;153623;-60
2022/07/22 10:25:48;;;;;;;;;;;;;;;24.93;45.70;101779.59;7282775;19;153440;-60
2022/07/22 10:28:41;;;;;;;;;;;;;;;24.95;45.45;101783.75;7283132;19;152838;-60
2022/07/22 10:31:22;;;;;;;;;;;;;;;24.97;45.51;101787.13;7280916;19;152631;-60
2022/07/22 10:33:59;;;;;;;;;;;;;;;24.97;45.74;101791.94;7278920;19;152684;-60
2022/07/22 10:36:31;;;;;;;;;;;;;;;24.96;45.93;101782.59;7280978;19;152812;-60
2022/07/22 10:39:10;;;;;;;;;;;;;;;24.96;45.35;101776.94;7279639;19;153891;-60
2022/07/22 10:41:40;;;;;;;;;;;;;;;24.97;45.34;101780.63;7280228;19;152058;-60
2022/07/22 10:44:07;;;;;;;;;;;;;;;24.97;45.46;101777.78;7289912;19;153478;-60
2022/07/22 10:46:53;;;;;;;;;;;;;;;24.96;45.80;101776.94;7288631;19;152154;-60
2022/07/22 10:49:21;;;;;;;;;;;;;;;24.95;45.20;101774.44;7285396;19;152968;-60
2022/07/22 10:52:20;;;;;;;;;;;;;;;24.95;44.95;101780.09;7285874;19;153809;-60
2022/07/22 10:55:06;;;;;;;;;;;;;;;24.91;45.44;101770.56;7287855;19;153249;-60
2022/07/22 10:57:32;;;;;;;;;;;;;;;24.90;45.43;101769.75;7288651;19;153378;-60
2022/07/22 11:00:04;;;;;;;;;;;;;;;24.92;45.49;101763.78;7287324;19;153540;-60
2022/07/22 11:02:31;;;;;;;;;;;;;;;24.91;45.20;101762.09;7283442;19;152197;-60
2022/07/22 11:04:57;;;;;;;;;;;;;;;24.91;45.00;101773.41;7285357;19;152586;-60
2022/07/22 11:07:25;;;;;;;;;;;;;;;24.90;45.26;101764.09;7293902;19;153216;-60
2022/07/22 11:09:52;;;;;;;;;;;;;;;24.88;45.23;101757.94;7288053;19;153177;-60
2022/07/22 11:12:19;;;;;;;;;;;;;;;24.89;44.99;101747.47;7285518;19;153885;-60
2022/07/22 11:14:47;;;;;;;;;;;;;;;24.90;44.94;101757.59;7287875;19;152419;-60
2022/07/22 11:17:14;;;;;;;;;;;;;;;24.89;44.78;101761.59;7288243;19;153467;-60
2022/07/22 11:19:41;;;;;;;;;;;;;;;24.89;44.60;101753.13;7283258;19;153418;-60
2022/07/22 11:22:08;;;;;;;;;;;;;;;24.88;44.68;101755.09;7285825;19;154343;-60
2022/07/22 11:24:36;;;;;;;;;;;;;;;24.87;45.03;101755.41;7285361;19;153549;-60
2022/07/22 11:27:03;;;;;;;;;;;;;;;24.88;45.34;101752.28;7286549;19;156866;-60
2022/07/22 11:29:35;;;;;;;;;;;;;;;24.88;45.05;101748.59;7294984;19;154290;-60
2022/07/22 11:32:03;;;;;;;;;;;;;;;24.86;45.05;101748.91;7284490;19;153328;-60
2022/07/22 11:34:29;;;;;;;;;;;;;;;24.86;44.90;101743.25;7283553;19;153276;-60
2022/07/22 11:36:57;;;;;;;;;;;;;;;24.86;45.33;101731.94;7282501;19;153439;-60
2022/07/22 11:39:25;;;;;;;;;;;;;;;24.86;44.93;101726.28;7285303;19;153846;-60
2022/07/22 11:41:53;;;;;;;;;;;;;;;24.87;45.04;101719.50;7285690;19;154679;-60
2022/07/22 11:44:20;;;;;;;;;;;;;;;24.87;44.93;101711.00;7286602;19;152626;-60
2022/07/22 11:46:47;;;;;;;;;;;;;;;24.87;44.93;101708.19;7286050;19;154866;-60
2022/07/22 11:49:15;;;;;;;;;;;;;;;24.86;44.50;101705.63;7283914;19;152247;-60
2022/07/22 11:51:42;;;;;;;;;;;;;;;24.88;44.53;101700.53;7291344;19;153529;-60
2022/07/22 11:54:08;;;;;;;;;;;;;;;24.86;44.54;101683.91;7286186;19;153470;-60
2022/07/22 11:56:36;;;;;;;;;;;;;;;24.86;44.58;101695.19;7283939;19;153372;-60
2022/07/22 11:59:09;;;;;;;;;;;;;;;24.86;45.23;101688.69;7284449;19;154116;-60
2022/07/22 12:01:37;;;;;;;;;;;;;;;24.86;45.07;101694.31;7283223;19;155369;-60
2022/07/22 12:04:08;;;;;;;;;;;;;;;24.86;44.71;101699.97;7279546;19;152851;-60
2022/07/22 12:06:37;;;;;;;;;;;;;;;24.87;44.86;101702.53;7283419;19;154288;-60
2022/07/22 12:09:11;;;;;;;;;;;;;;;24.86;45.13;101700.84;7286367;19;152478;-60
2022/07/22 12:11:40;;;;;;;;;;;;;;;24.86;44.96;101695.19;7286573;19;152646;-60
2022/07/22 12:14:08;;;;;;;;;;;;;;;24.85;44.72;101699.16;7288977;19;152056;-60
2022/07/22 12:16:42;;;;;;;;;;;;;;;24.85;44.73;101687.84;7286663;19;153748;-60
2022/07/22 12:19:12;;;;;;;;;;;;;;;24.84;44.96;101691.00;7282162;19;153328;-60
2022/07/22 12:21:51;;;;;;;;;;;;;;;24.85;44.70;101692.69;7282019;19;152367;-61
2022/07/22 12:24:31;;;;;;;;;;;;;;;24.84;45.05;101693.84;7285382;19;152551;-60
2022/07/22 12:27:03;;;;;;;;;;;;;;;24.84;44.69;101700.31;7285799;19;153733;-60
2022/07/22 12:29:31;;;;;;;;;;;;;;;24.84;44.94;101708.81;7284444;19;153529;-60
2022/07/22 12:31:59;;;;;;;;;;;;;;;24.84;44.87;101717.28;7285848;19;152599;-60
2022/07/22 12:34:32;;;;;;;;;;;;;;;24.88;44.79;101717.50;7290212;19;153932;-60